sensor_id;sensor_type;location;lat;lon;timestamp;pressure;altitude;pressure_sealevel;temperature;humidity
49843;BME280;55559;48.898;9.184;2023-06-14T00:01:12;97912.19;;;14.77;70.09
49843;BME280;55559;48.898;9.184;2023-06-14T00:03:42;97914.09;;;14.68;71.34
49843;BME280;55559;48.898;9.184;2023-06-14T00:06:09;97926.59;;;14.76;70.54
49843;BME280;55559;48.898;9.184;2023-06-14T00:08:37;97919.44;;;14.68;71.45
49843;BME280;55559;48.898;9.184;2023-06-14T00:11:05;97918.66;;;14.60;72.05
49843;BME280;55559;48.898;9.184;2023-06-14T00:13:34;97919.69;;;14.50;72.67
49843;BME280;55559;48.898;9.184;2023-06-14T00:16:01;97916.53;;;14.47;72.75
49843;BME280;55559;48.898;9.184;2023-06-14T00:18:29;97911.84;;;14.49;71.23
49843;BME280;55559;48.898;9.184;2023-06-14T00:20:58;97914.34;;;14.50;72.26
49843;BME280;55559;48.898;9.184;2023-06-14T00:23:25;97911.00;;;14.48;71.51
49843;BME280;55559;48.898;9.184;2023-06-14T00:25:53;97915.38;;;14.41;71.40
49843;BME280;55559;48.898;9.184;2023-06-14T00:28:20;97909.88;;;14.35;74.36
49843;BME280;55559;48.898;9.184;2023-06-14T00:30:48;97917.13;;;14.26;75.77
49843;BME280;55559;48.898;9.184;2023-06-14T00:33:15;97911.81;;;14.18;75.63
49843;BME280;55559;48.898;9.184;2023-06-14T00:35:43;97913.16;;;14.13;76.48
49843;BME280;55559;48.898;9.184;2023-06-14T00:38:12;97911.00;;;14.09;77.91
49843;BME280;55559;48.898;9.184;2023-06-14T00:40:40;97903.97;;;14.08;76.23
49843;BME280;55559;48.898;9.184;2023-06-14T00:43:07;97905.19;;;14.05;75.70
49843;BME280;55559;48.898;9.184;2023-06-14T00:45:36;97914.16;;;14.12;75.92
49843;BME280;55559;48.898;9.184;2023-06-14T00:48:05;97914.00;;;14.14;75.50
49843;BME280;55559;48.898;9.184;2023-06-14T00:50:33;97914.47;;;14.18;76.09
49843;BME280;55559;48.898;9.184;2023-06-14T00:53:02;97911.31;;;14.14;76.14
49843;BME280;55559;48.898;9.184;2023-06-14T00:55:31;97913.81;;;14.16;77.49
49843;BME280;55559;48.898;9.184;2023-06-14T00:57:59;97910.66;;;14.12;75.77
49843;BME280;55559;48.898;9.184;2023-06-14T01:00:27;97911.34;;;14.06;74.90
49843;BME280;55559;48.898;9.184;2023-06-14T01:02:55;97907.03;;;14.05;75.14
49843;BME280;55559;48.898;9.184;2023-06-14T01:05:22;97912.38;;;14.05;74.83
49843;BME280;55559;48.898;9.184;2023-06-14T01:08:00;97907.88;;;13.97;76.09
49843;BME280;55559;48.898;9.184;2023-06-14T01:10:37;97920.56;;;13.95;75.56
49843;BME280;55559;48.898;9.184;2023-06-14T01:13:14;97917.91;;;13.87;77.97
49843;BME280;55559;48.898;9.184;2023-06-14T01:15:47;97919.78;;;13.86;78.60
49843;BME280;55559;48.898;9.184;2023-06-14T01:18:15;97930.63;;;13.93;77.78
49843;BME280;55559;48.898;9.184;2023-06-14T01:20:45;97926.25;;;13.92;76.93
49843;BME280;55559;48.898;9.184;2023-06-14T01:23:16;97924.09;;;13.79;77.75
49843;BME280;55559;48.898;9.184;2023-06-14T01:25:44;97917.28;;;13.76;79.23
49843;BME280;55559;48.898;9.184;2023-06-14T01:28:14;97920.47;;;13.72;79.03
49843;BME280;55559;48.898;9.184;2023-06-14T01:30:43;97923.28;;;13.70;79.09
49843;BME280;55559;48.898;9.184;2023-06-14T01:33:15;97922.63;;;13.68;79.29
49843;BME280;55559;48.898;9.184;2023-06-14T01:35:45;97918.44;;;13.66;80.32
49843;BME280;55559;48.898;9.184;2023-06-14T01:38:13;97920.47;;;13.72;80.53
49843;BME280;55559;48.898;9.184;2023-06-14T01:40:43;97919.47;;;13.65;82.07
49843;BME280;55559;48.898;9.184;2023-06-14T01:43:11;97923.63;;;13.59;81.44
49843;BME280;55559;48.898;9.184;2023-06-14T01:45:40;97924.00;;;13.56;81.16
49843;BME280;55559;48.898;9.184;2023-06-14T01:48:09;97920.81;;;13.52;80.97
49843;BME280;55559;48.898;9.184;2023-06-14T01:50:36;97916.66;;;13.50;81.94
49843;BME280;55559;48.898;9.184;2023-06-14T01:53:06;97922.16;;;13.48;82.39
49843;BME280;55559;48.898;9.184;2023-06-14T01:55:36;97927.50;;;13.40;82.99
49843;BME280;55559;48.898;9.184;2023-06-14T01:58:07;97927.66;;;13.38;83.91
49843;BME280;55559;48.898;9.184;2023-06-14T02:00:35;97935.03;;;13.36;84.15
49843;BME280;55559;48.898;9.184;2023-06-14T02:03:03;97928.00;;;13.35;82.72
49843;BME280;55559;48.898;9.184;2023-06-14T02:05:31;97925.84;;;13.39;81.88
49843;BME280;55559;48.898;9.184;2023-06-14T02:07:58;97926.50;;;13.33;83.29
49843;BME280;55559;48.898;9.184;2023-06-14T02:10:26;97928.00;;;13.27;83.72
49843;BME280;55559;48.898;9.184;2023-06-14T02:12:54;97926.81;;;13.21;84.90
49843;BME280;55559;48.898;9.184;2023-06-14T02:15:23;97920.63;;;13.21;85.07
49843;BME280;55559;48.898;9.184;2023-06-14T02:17:53;97918.47;;;13.16;85.43
49843;BME280;55559;48.898;9.184;2023-06-14T02:20:20;97920.47;;;13.14;85.83
49843;BME280;55559;48.898;9.184;2023-06-14T02:22:49;97913.44;;;13.13;84.93
49843;BME280;55559;48.898;9.184;2023-06-14T02:25:17;97921.28;;;13.15;85.62
49843;BME280;55559;48.898;9.184;2023-06-14T02:27:44;97925.81;;;13.14;85.41
49843;BME280;55559;48.898;9.184;2023-06-14T02:30:12;97920.63;;;13.21;84.51
49843;BME280;55559;48.898;9.184;2023-06-14T02:32:42;97926.31;;;13.18;84.40
49843;BME280;55559;48.898;9.184;2023-06-14T02:35:12;97927.66;;;13.14;85.63
49843;BME280;55559;48.898;9.184;2023-06-14T02:37:39;97928.66;;;13.13;85.65
49843;BME280;55559;48.898;9.184;2023-06-14T02:40:09;97927.47;;;13.07;86.66
49843;BME280;55559;48.898;9.184;2023-06-14T02:42:37;97927.31;;;13.09;88.59
49843;BME280;55559;48.898;9.184;2023-06-14T02:45:05;97931.13;;;12.98;89.67
49843;BME280;55559;48.898;9.184;2023-06-14T02:47:33;97932.31;;;12.95;91.04
49843;BME280;55559;48.898;9.184;2023-06-14T02:50:02;97926.09;;;12.87;90.66
49843;BME280;55559;48.898;9.184;2023-06-14T02:52:30;97938.63;;;12.86;91.06
49843;BME280;55559;48.898;9.184;2023-06-14T02:54:59;97928.13;;;12.93;91.38
49843;BME280;55559;48.898;9.184;2023-06-14T02:57:26;97919.44;;;12.91;92.61
49843;BME280;55559;48.898;9.184;2023-06-14T02:59:54;97917.59;;;12.83;92.88
49843;BME280;55559;48.898;9.184;2023-06-14T03:02:21;97927.91;;;12.78;93.45
49843;BME280;55559;48.898;9.184;2023-06-14T03:04:49;97933.56;;;12.75;94.40
49843;BME280;55559;48.898;9.184;2023-06-14T03:07:20;97933.22;;;12.70;95.67
49843;BME280;55559;48.898;9.184;2023-06-14T03:09:51;97937.88;;;12.59;99.51
49843;BME280;55559;48.898;9.184;2023-06-14T03:12:20;97940.19;;;12.54;99.27
49843;BME280;55559;48.898;9.184;2023-06-14T03:14:48;97943.38;;;12.50;98.65
49843;BME280;55559;48.898;9.184;2023-06-14T03:17:19;97937.19;;;12.49;98.91
49843;BME280;55559;48.898;9.184;2023-06-14T03:19:47;97942.91;;;12.62;96.74
49843;BME280;55559;48.898;9.184;2023-06-14T03:22:16;97947.56;;;12.60;97.93
49843;BME280;55559;48.898;9.184;2023-06-14T03:24:45;97936.06;;;12.68;96.99
49843;BME280;55559;48.898;9.184;2023-06-14T03:27:14;97946.09;;;12.74;96.33
49843;BME280;55559;48.898;9.184;2023-06-14T03:29:45;97946.59;;;12.78;95.71
49843;BME280;55559;48.898;9.184;2023-06-14T03:32:12;97948.44;;;12.77;96.26
49843;BME280;55559;48.898;9.184;2023-06-14T03:34:42;97952.25;;;12.75;96.81
49843;BME280;55559;48.898;9.184;2023-06-14T03:37:16;97955.13;;;12.73;96.81
49843;BME280;55559;48.898;9.184;2023-06-14T03:39:46;97947.28;;;12.72;96.18
49843;BME280;55559;48.898;9.184;2023-06-14T03:42:19;97954.09;;;12.74;97.89
49843;BME280;55559;48.898;9.184;2023-06-14T03:44:48;97960.94;;;12.77;97.35
49843;BME280;55559;48.898;9.184;2023-06-14T03:47:17;97957.59;;;12.75;98.48
49843;BME280;55559;48.898;9.184;2023-06-14T03:49:47;97960.59;;;12.80;98.76
49843;BME280;55559;48.898;9.184;2023-06-14T03:52:14;97966.47;;;12.92;98.34
49843;BME280;55559;48.898;9.184;2023-06-14T03:54:46;97964.16;;;12.97;98.56
49843;BME280;55559;48.898;9.184;2023-06-14T03:57:14;97971.97;;;12.98;98.22
49843;BME280;55559;48.898;9.184;2023-06-14T03:59:43;97973.50;;;13.01;97.69
49843;BME280;55559;48.898;9.184;2023-06-14T04:02:11;97974.34;;;13.10;96.06
49843;BME280;55559;48.898;9.184;2023-06-14T04:04:41;97967.00;;;13.12;94.68
49843;BME280;55559;48.898;9.184;2023-06-14T04:07:11;97974.19;;;13.11;95.45
49843;BME280;55559;48.898;9.184;2023-06-14T04:09:38;97973.56;;;13.26;93.72
49843;BME280;55559;48.898;9.184;2023-06-14T04:12:09;97979.38;;;13.21;94.42
49843;BME280;55559;48.898;9.184;2023-06-14T04:14:37;97972.72;;;13.33;94.12
49843;BME280;55559;48.898;9.184;2023-06-14T04:17:07;97982.09;;;13.37;93.55
49843;BME280;55559;48.898;9.184;2023-06-14T04:19:37;97986.09;;;13.42;91.61
49843;BME280;55559;48.898;9.184;2023-06-14T04:22:05;97994.13;;;13.50;90.83
49843;BME280;55559;48.898;9.184;2023-06-14T04:24:34;97989.25;;;13.53;90.63
49843;BME280;55559;48.898;9.184;2023-06-14T04:27:03;97992.44;;;13.57;91.07
49843;BME280;55559;48.898;9.184;2023-06-14T04:29:34;98001.09;;;13.59;91.62
49843;BME280;55559;48.898;9.184;2023-06-14T04:32:06;98003.28;;;13.55;92.42
49843;BME280;55559;48.898;9.184;2023-06-14T04:34:37;98007.97;;;13.53;92.54
49843;BME280;55559;48.898;9.184;2023-06-14T04:37:06;98012.16;;;13.56;93.99
49843;BME280;55559;48.898;9.184;2023-06-14T04:39:40;98009.47;;;13.64;93.52
49843;BME280;55559;48.898;9.184;2023-06-14T04:42:08;98008.97;;;13.61;94.59
49843;BME280;55559;48.898;9.184;2023-06-14T04:44:40;98007.66;;;13.65;93.57
49843;BME280;55559;48.898;9.184;2023-06-14T04:47:08;98011.63;;;13.85;91.54
49843;BME280;55559;48.898;9.184;2023-06-14T04:49:35;98010.31;;;13.81;92.41
49843;BME280;55559;48.898;9.184;2023-06-14T04:52:05;98018.16;;;13.74;91.04
49843;BME280;55559;48.898;9.184;2023-06-14T04:54:40;98023.81;;;13.88;91.45
49843;BME280;55559;48.898;9.184;2023-06-14T04:57:10;98029.16;;;13.88;91.17
49843;BME280;55559;48.898;9.184;2023-06-14T04:59:42;98034.16;;;13.91;90.75
49843;BME280;55559;48.898;9.184;2023-06-14T05:02:10;98031.16;;;13.94;89.85
49843;BME280;55559;48.898;9.184;2023-06-14T05:04:38;98036.00;;;13.99;90.03
49843;BME280;55559;48.898;9.184;2023-06-14T05:07:06;98042.34;;;13.98;89.16
49843;BME280;55559;48.898;9.184;2023-06-14T05:09:35;98039.84;;;14.04;88.37
49843;BME280;55559;48.898;9.184;2023-06-14T05:12:03;98025.47;;;14.05;88.57
49843;BME280;55559;48.898;9.184;2023-06-14T05:14:33;98035.34;;;14.05;87.18
49843;BME280;55559;48.898;9.184;2023-06-14T05:17:02;98032.28;;;14.24;87.71
49843;BME280;55559;48.898;9.184;2023-06-14T05:19:29;98027.59;;;14.26;87.11
49843;BME280;55559;48.898;9.184;2023-06-14T05:21:57;98038.13;;;14.28;86.77
49843;BME280;55559;48.898;9.184;2023-06-14T05:24:25;98038.09;;;14.36;87.51
49843;BME280;55559;48.898;9.184;2023-06-14T05:26:52;98036.72;;;14.48;86.69
49843;BME280;55559;48.898;9.184;2023-06-14T05:29:19;98042.63;;;14.44;84.97
49843;BME280;55559;48.898;9.184;2023-06-14T05:31:47;98041.09;;;14.49;84.91
49843;BME280;55559;48.898;9.184;2023-06-14T05:34:16;98043.25;;;14.62;84.12
49843;BME280;55559;48.898;9.184;2023-06-14T05:36:43;98045.00;;;14.86;84.82
49843;BME280;55559;48.898;9.184;2023-06-14T05:39:11;98041.09;;;14.97;82.71
49843;BME280;55559;48.898;9.184;2023-06-14T05:41:39;98040.72;;;15.00;82.89
49843;BME280;55559;48.898;9.184;2023-06-14T05:44:06;98043.53;;;15.07;82.94
49843;BME280;55559;48.898;9.184;2023-06-14T05:46:34;98052.53;;;15.14;82.25
49843;BME280;55559;48.898;9.184;2023-06-14T05:49:02;98049.34;;;15.19;81.51
49843;BME280;55559;48.898;9.184;2023-06-14T05:51:31;98050.41;;;15.33;81.84
49843;BME280;55559;48.898;9.184;2023-06-14T05:53:58;98045.56;;;15.36;82.02
49843;BME280;55559;48.898;9.184;2023-06-14T05:56:26;98044.50;;;15.46;81.42
49843;BME280;55559;48.898;9.184;2023-06-14T05:58:53;98041.88;;;15.60;81.27
49843;BME280;55559;48.898;9.184;2023-06-14T06:01:21;98047.59;;;15.57;81.64
49843;BME280;55559;48.898;9.184;2023-06-14T06:03:48;98052.59;;;15.60;80.11
49843;BME280;55559;48.898;9.184;2023-06-14T06:06:16;98057.22;;;15.67;79.66
49843;BME280;55559;48.898;9.184;2023-06-14T06:08:45;98045.59;;;15.83;80.15
49843;BME280;55559;48.898;9.184;2023-06-14T06:11:12;98054.44;;;15.83;77.45
49843;BME280;55559;48.898;9.184;2023-06-14T06:13:39;98048.50;;;15.96;76.66
49843;BME280;55559;48.898;9.184;2023-06-14T06:16:07;98056.59;;;16.41;76.43
49843;BME280;55559;48.898;9.184;2023-06-14T06:18:35;98065.34;;;16.87;72.62
49843;BME280;55559;48.898;9.184;2023-06-14T06:21:03;98047.34;;;17.03;71.63
49843;BME280;55559;48.898;9.184;2023-06-14T06:23:31;98057.25;;;17.17;70.06
49843;BME280;55559;48.898;9.184;2023-06-14T06:26:00;98060.72;;;19.24;61.31
49843;BME280;55559;48.898;9.184;2023-06-14T06:28:27;98064.41;;;20.51;55.19
49843;BME280;55559;48.898;9.184;2023-06-14T06:30:55;98056.13;;;20.26;55.29
49843;BME280;55559;48.898;9.184;2023-06-14T06:33:22;98055.91;;;20.34;55.00
49843;BME280;55559;48.898;9.184;2023-06-14T06:35:49;98064.31;;;21.43;51.63
49843;BME280;55559;48.898;9.184;2023-06-14T06:38:17;98060.81;;;20.77;53.10
49843;BME280;55559;48.898;9.184;2023-06-14T06:40:45;98067.53;;;20.15;55.52
49843;BME280;55559;48.898;9.184;2023-06-14T06:43:14;98068.50;;;20.80;52.96
49843;BME280;55559;48.898;9.184;2023-06-14T06:45:46;98071.03;;;20.75;51.35
49843;BME280;55559;48.898;9.184;2023-06-14T06:48:13;98079.03;;;21.61;48.04
49843;BME280;55559;48.898;9.184;2023-06-14T06:50:41;98081.22;;;20.60;50.92
49843;BME280;55559;48.898;9.184;2023-06-14T06:53:09;98084.84;;;21.06;48.91
49843;BME280;55559;48.898;9.184;2023-06-14T06:55:36;98076.28;;;21.99;47.36
49843;BME280;55559;48.898;9.184;2023-06-14T06:58:03;98081.63;;;20.43;49.95
49843;BME280;55559;48.898;9.184;2023-06-14T07:00:33;98085.31;;;20.89;49.72
49843;BME280;55559;48.898;9.184;2023-06-14T07:03:01;98094.13;;;20.18;50.56
49843;BME280;55559;48.898;9.184;2023-06-14T07:05:29;98084.13;;;20.65;50.01
49843;BME280;55559;48.898;9.184;2023-06-14T07:07:57;98093.16;;;21.11;49.38
49843;BME280;55559;48.898;9.184;2023-06-14T07:10:24;98091.28;;;21.11;47.93
49843;BME280;55559;48.898;9.184;2023-06-14T07:12:52;98095.50;;;21.52;47.12
49843;BME280;55559;48.898;9.184;2023-06-14T07:15:19;98098.84;;;20.89;48.76
49843;BME280;55559;48.898;9.184;2023-06-14T07:17:48;98090.53;;;21.49;47.95
49843;BME280;55559;48.898;9.184;2023-06-14T07:20:17;98098.75;;;21.16;48.46
49843;BME280;55559;48.898;9.184;2023-06-14T07:22:44;98098.41;;;21.58;48.02
49843;BME280;55559;48.898;9.184;2023-06-14T07:25:13;98101.16;;;21.83;49.13
49843;BME280;55559;48.898;9.184;2023-06-14T07:27:41;98102.84;;;20.73;50.63
49843;BME280;55559;48.898;9.184;2023-06-14T07:30:09;98104.34;;;21.21;48.60
49843;BME280;55559;48.898;9.184;2023-06-14T07:32:37;98108.13;;;21.20;50.84
49843;BME280;55559;48.898;9.184;2023-06-14T07:35:07;98111.06;;;21.05;50.60
49843;BME280;55559;48.898;9.184;2023-06-14T07:37:35;98109.81;;;21.08;50.26
49843;BME280;55559;48.898;9.184;2023-06-14T07:40:03;98115.78;;;21.23;50.17
49843;BME280;55559;48.898;9.184;2023-06-14T07:42:33;98112.41;;;20.56;51.74
49843;BME280;55559;48.898;9.184;2023-06-14T07:45:01;98124.63;;;20.25;52.71
49843;BME280;55559;48.898;9.184;2023-06-14T07:47:29;98114.69;;;20.19;53.39
49843;BME280;55559;48.898;9.184;2023-06-14T07:49:56;98113.63;;;20.40;53.85
49843;BME280;55559;48.898;9.184;2023-06-14T07:52:25;98119.47;;;20.70;52.05
49843;BME280;55559;48.898;9.184;2023-06-14T07:54:53;98130.44;;;20.22;54.15
49843;BME280;55559;48.898;9.184;2023-06-14T07:57:20;98111.25;;;19.70;56.47
49843;BME280;55559;48.898;9.184;2023-06-14T07:59:48;98107.41;;;20.13;56.58
49843;BME280;55559;48.898;9.184;2023-06-14T08:02:15;98105.09;;;20.03;56.33
49843;BME280;55559;48.898;9.184;2023-06-14T08:04:43;98111.53;;;19.82;56.93
49843;BME280;55559;48.898;9.184;2023-06-14T08:07:11;98114.38;;;19.74;59.16
49843;BME280;55559;48.898;9.184;2023-06-14T08:09:40;98118.59;;;20.03;57.31
49843;BME280;55559;48.898;9.184;2023-06-14T08:12:08;98112.41;;;20.56;56.70
49843;BME280;55559;48.898;9.184;2023-06-14T08:14:36;98118.84;;;20.41;59.29
49843;BME280;55559;48.898;9.184;2023-06-14T08:17:04;98111.56;;;20.75;56.00
49843;BME280;55559;48.898;9.184;2023-06-14T08:19:31;98125.06;;;20.35;56.60
49843;BME280;55559;48.898;9.184;2023-06-14T08:21:59;98115.09;;;20.42;57.78
49843;BME280;55559;48.898;9.184;2023-06-14T08:24:27;98119.44;;;20.50;56.45
49843;BME280;55559;48.898;9.184;2023-06-14T08:26:56;98119.44;;;20.43;58.17
49843;BME280;55559;48.898;9.184;2023-06-14T08:29:27;98122.56;;;20.80;55.97
49843;BME280;55559;48.898;9.184;2023-06-14T08:31:56;98128.38;;;20.64;56.91
49843;BME280;55559;48.898;9.184;2023-06-14T08:34:24;98125.66;;;20.84;55.02
49843;BME280;55559;48.898;9.184;2023-06-14T08:36:51;98116.28;;;21.00;56.90
49843;BME280;55559;48.898;9.184;2023-06-14T08:39:19;98118.84;;;20.68;55.80
49843;BME280;55559;48.898;9.184;2023-06-14T08:41:47;98123.78;;;20.98;56.13
49843;BME280;55559;48.898;9.184;2023-06-14T08:44:18;98124.34;;;21.13;56.06
49843;BME280;55559;48.898;9.184;2023-06-14T08:46:48;98131.75;;;21.31;54.74
49843;BME280;55559;48.898;9.184;2023-06-14T08:49:16;98124.31;;;21.27;54.53
49843;BME280;55559;48.898;9.184;2023-06-14T08:51:44;98126.84;;;21.22;54.94
49843;BME280;55559;48.898;9.184;2023-06-14T08:54:14;98132.97;;;21.55;53.50
49843;BME280;55559;48.898;9.184;2023-06-14T08:56:42;98121.22;;;21.68;53.50
49843;BME280;55559;48.898;9.184;2023-06-14T08:59:10;98129.91;;;21.77;53.58
49843;BME280;55559;48.898;9.184;2023-06-14T09:01:40;98131.03;;;21.63;53.22
49843;BME280;55559;48.898;9.184;2023-06-14T09:04:08;98122.47;;;21.72;53.59
49843;BME280;55559;48.898;9.184;2023-06-14T09:06:35;98124.91;;;21.81;52.15
49843;BME280;55559;48.898;9.184;2023-06-14T09:09:03;98121.47;;;21.99;51.94
49843;BME280;55559;48.898;9.184;2023-06-14T09:11:31;98120.59;;;22.37;52.13
49843;BME280;55559;48.898;9.184;2023-06-14T09:13:58;98124.06;;;22.12;51.61
49843;BME280;55559;48.898;9.184;2023-06-14T09:16:25;98119.00;;;22.73;51.04
49843;BME280;55559;48.898;9.184;2023-06-14T09:18:54;98123.84;;;22.45;50.38
49843;BME280;55559;48.898;9.184;2023-06-14T09:21:22;98130.69;;;21.91;51.57
49843;BME280;55559;48.898;9.184;2023-06-14T09:23:49;98125.09;;;22.68;50.24
49843;BME280;55559;48.898;9.184;2023-06-14T09:26:18;98129.97;;;22.34;50.40
49843;BME280;55559;48.898;9.184;2023-06-14T09:28:47;98131.13;;;22.20;49.88
49843;BME280;55559;48.898;9.184;2023-06-14T09:31:15;98125.69;;;22.52;48.79
49843;BME280;55559;48.898;9.184;2023-06-14T09:33:44;98128.97;;;22.79;48.72
49843;BME280;55559;48.898;9.184;2023-06-14T09:36:18;98123.88;;;23.45;48.15
49843;BME280;55559;48.898;9.184;2023-06-14T09:38:52;98126.00;;;23.91;47.62
49843;BME280;55559;48.898;9.184;2023-06-14T09:41:20;98117.19;;;24.08;45.86
49843;BME280;55559;48.898;9.184;2023-06-14T09:43:48;98121.91;;;24.12;45.88
49843;BME280;55559;48.898;9.184;2023-06-14T09:46:16;98137.41;;;23.82;44.76
49843;BME280;55559;48.898;9.184;2023-06-14T09:48:43;98136.25;;;24.43;44.56
49843;BME280;55559;48.898;9.184;2023-06-14T09:51:13;98122.59;;;23.47;46.07
49843;BME280;55559;48.898;9.184;2023-06-14T09:53:43;98128.22;;;22.72;47.37
49843;BME280;55559;48.898;9.184;2023-06-14T09:56:12;98137.00;;;22.42;48.42
49843;BME280;55559;48.898;9.184;2023-06-14T09:58:40;98127.22;;;23.77;44.02
49843;BME280;55559;48.898;9.184;2023-06-14T10:01:08;98124.09;;;23.62;42.29
49843;BME280;55559;48.898;9.184;2023-06-14T10:03:39;98118.03;;;23.29;42.52
49843;BME280;55559;48.898;9.184;2023-06-14T10:06:08;98131.00;;;22.83;42.96
49843;BME280;55559;48.898;9.184;2023-06-14T10:08:36;98123.44;;;23.78;41.53
49843;BME280;55559;48.898;9.184;2023-06-14T10:11:06;98118.28;;;24.19;40.95
49843;BME280;55559;48.898;9.184;2023-06-14T10:13:34;98118.56;;;24.52;40.16
49843;BME280;55559;48.898;9.184;2023-06-14T10:16:07;98122.00;;;24.60;40.57
49843;BME280;55559;48.898;9.184;2023-06-14T10:18:45;98116.78;;;24.46;38.67
49843;BME280;55559;48.898;9.184;2023-06-14T10:21:20;98120.22;;;24.89;39.26
49843;BME280;55559;48.898;9.184;2023-06-14T10:23:49;98131.09;;;23.51;39.79
49843;BME280;55559;48.898;9.184;2023-06-14T10:26:20;98126.66;;;23.01;41.23
49843;BME280;55559;48.898;9.184;2023-06-14T10:28:58;98115.69;;;23.14;40.71
49843;BME280;55559;48.898;9.184;2023-06-14T10:31:53;98113.19;;;24.10;39.35
49843;BME280;55559;48.898;9.184;2023-06-14T10:34:23;98112.41;;;24.33;39.12
49843;BME280;55559;48.898;9.184;2023-06-14T10:37:04;98112.13;;;24.35;38.53
49843;BME280;55559;48.898;9.184;2023-06-14T10:39:33;98104.66;;;23.76;39.44
49843;BME280;55559;48.898;9.184;2023-06-14T10:42:05;98113.31;;;22.81;40.38
49843;BME280;55559;48.898;9.184;2023-06-14T10:44:43;98110.94;;;24.07;37.91
49843;BME280;55559;48.898;9.184;2023-06-14T10:47:21;98109.47;;;24.70;37.00
49843;BME280;55559;48.898;9.184;2023-06-14T10:49:52;98109.34;;;24.77;36.60
49843;BME280;55559;48.898;9.184;2023-06-14T10:52:27;98105.50;;;23.77;35.65
49843;BME280;55559;48.898;9.184;2023-06-14T10:55:16;98116.66;;;23.38;37.49
49843;BME280;55559;48.898;9.184;2023-06-14T10:57:47;98126.16;;;23.29;36.99
49843;BME280;55559;48.898;9.184;2023-06-14T11:00:18;98119.63;;;23.98;36.66
49843;BME280;55559;48.898;9.184;2023-06-14T11:06:14;98121.03;;;25.25;36.29
49843;BME280;55559;48.898;9.184;2023-06-14T11:11:57;98112.47;;;24.69;36.33
49843;BME280;55559;48.898;9.184;2023-06-14T11:14:26;98106.78;;;24.17;36.10
49843;BME280;55559;48.898;9.184;2023-06-14T11:16:56;98113.50;;;23.72;37.08
49843;BME280;55559;48.898;9.184;2023-06-14T11:19:24;98116.97;;;23.61;36.81
49843;BME280;55559;48.898;9.184;2023-06-14T11:21:54;98108.81;;;24.21;36.31
49843;BME280;55559;48.898;9.184;2023-06-14T11:24:22;98112.97;;;24.24;36.47
49843;BME280;55559;48.898;9.184;2023-06-14T11:26:50;98119.06;;;24.73;36.30
49843;BME280;55559;48.898;9.184;2023-06-14T11:29:20;98109.31;;;24.54;35.48
49843;BME280;55559;48.898;9.184;2023-06-14T11:31:49;98104.41;;;24.62;35.25
49843;BME280;55559;48.898;9.184;2023-06-14T11:34:17;98113.50;;;24.92;35.69
49843;BME280;55559;48.898;9.184;2023-06-14T11:36:45;98109.75;;;25.45;35.14
49843;BME280;55559;48.898;9.184;2023-06-14T11:39:13;98108.91;;;25.44;34.91
49843;BME280;55559;48.898;9.184;2023-06-14T11:41:42;98105.59;;;25.42;35.24
49843;BME280;55559;48.898;9.184;2023-06-14T11:44:11;98125.19;;;24.68;35.46
49843;BME280;55559;48.898;9.184;2023-06-14T11:46:39;98119.03;;;24.49;35.90
49843;BME280;55559;48.898;9.184;2023-06-14T11:49:08;98125.09;;;24.09;36.84
49843;BME280;55559;48.898;9.184;2023-06-14T11:51:36;98105.50;;;23.77;37.61
49843;BME280;55559;48.898;9.184;2023-06-14T11:54:05;98103.78;;;24.84;36.95
49843;BME280;55559;48.898;9.184;2023-06-14T11:56:33;98114.56;;;24.91;35.74
49843;BME280;55559;48.898;9.184;2023-06-14T11:59:03;98106.44;;;25.43;35.83
49843;BME280;55559;48.898;9.184;2023-06-14T12:01:31;98098.56;;;24.94;35.92
49843;BME280;55559;48.898;9.184;2023-06-14T12:03:59;98113.44;;;25.39;35.35
49843;BME280;55559;48.898;9.184;2023-06-14T12:06:29;98100.78;;;25.33;36.13
49843;BME280;55559;48.898;9.184;2023-06-14T12:08:59;98100.19;;;25.19;35.99
49843;BME280;55559;48.898;9.184;2023-06-14T12:11:32;98102.34;;;26.15;35.31
49843;BME280;55559;48.898;9.184;2023-06-14T12:14:00;98103.63;;;25.26;36.03
49843;BME280;55559;48.898;9.184;2023-06-14T12:16:32;98112.13;;;24.35;37.16
49843;BME280;55559;48.898;9.184;2023-06-14T12:19:17;98103.66;;;24.43;37.56
49843;BME280;55559;48.898;9.184;2023-06-14T12:21:47;98104.94;;;24.17;37.38
49843;BME280;55559;48.898;9.184;2023-06-14T12:24:16;98110.84;;;23.84;38.85
49843;BME280;55559;48.898;9.184;2023-06-14T12:26:44;98108.53;;;23.69;38.84
49843;BME280;55559;48.898;9.184;2023-06-14T12:29:12;98110.97;;;23.58;39.70
49843;BME280;55559;48.898;9.184;2023-06-14T12:31:40;98106.88;;;23.19;40.18
49843;BME280;55559;48.898;9.184;2023-06-14T12:34:08;98102.34;;;23.13;39.09
49843;BME280;55559;48.898;9.184;2023-06-14T12:36:35;98106.22;;;23.54;39.63
49843;BME280;55559;48.898;9.184;2023-06-14T12:39:09;98104.34;;;24.15;38.38
49843;BME280;55559;48.898;9.184;2023-06-14T12:41:36;98102.72;;;24.49;38.03
49843;BME280;55559;48.898;9.184;2023-06-14T12:44:04;98102.59;;;24.44;37.52
49843;BME280;55559;48.898;9.184;2023-06-14T12:46:32;98100.00;;;25.09;37.90
49843;BME280;55559;48.898;9.184;2023-06-14T12:49:01;98097.72;;;25.17;37.73
49843;BME280;55559;48.898;9.184;2023-06-14T12:51:28;98101.50;;;25.40;36.91
49843;BME280;55559;48.898;9.184;2023-06-14T12:53:55;98095.91;;;25.47;36.07
49843;BME280;55559;48.898;9.184;2023-06-14T12:56:24;98105.59;;;25.42;37.28
49843;BME280;55559;48.898;9.184;2023-06-14T12:58:52;98103.84;;;25.77;36.02
49843;BME280;55559;48.898;9.184;2023-06-14T13:01:19;98109.09;;;25.84;36.25
49843;BME280;55559;48.898;9.184;2023-06-14T13:03:47;98103.63;;;25.26;36.53
49843;BME280;55559;48.898;9.184;2023-06-14T13:06:16;98091.22;;;25.88;36.25
49843;BME280;55559;48.898;9.184;2023-06-14T13:08:44;98096.72;;;26.05;36.40
49843;BME280;55559;48.898;9.184;2023-06-14T13:11:11;98094.19;;;25.29;36.75
49843;BME280;55559;48.898;9.184;2023-06-14T13:13:40;98095.44;;;25.67;36.05
49843;BME280;55559;48.898;9.184;2023-06-14T13:16:07;98100.16;;;25.71;36.14